This is the latest recevied weather packets stored in our database for station/object OE9FWV. If no packets are shown the sender has not sent any weather packets the latest 10 day(s).
| Time | Temp. | Humidity | Pressure | Rain* | Wind** | Luminosity | Snow |
|---|---|---|---|---|---|---|---|
| 1777494758 | 12.78° C | 58% | 1019.4 hPa | 0 mm | - | - | - |
| 1777494154 | 13.33° C | 56% | 1019.4 hPa | 0 mm | - | - | - |
| 1777492347 | 13.89° C | 55% | 1019.1 hPa | 0 mm | - | - | - |
| 1777491746 | 13.89° C | 55% | 1018.9 hPa | 0 mm | - | - | - |
| 1777491141 | 14.44° C | 54% | 1018.9 hPa | 0 mm | - | - | - |
| 1777489936 | 15° C | 52% | 1018.4 hPa | 0 mm | - | - | - |
| 1777489333 | 15° C | 51% | 1018.3 hPa | 0 mm | - | - | - |
| 1777488729 | 15.56° C | 51% | 1018.2 hPa | 0 mm | - | - | - |
| 1777488125 | 15.56° C | 51% | 1018.1 hPa | 0 mm | - | - | - |
| 1777487520 | 16.11° C | 51% | 1018 hPa | 0 mm | - | - | - |
| 1777486913 | 16.11° C | 51% | 1017.8 hPa | 0 mm | - | - | - |
| 1777486308 | 16.67° C | 51% | 1017.7 hPa | 0 mm | - | - | - |
| 1777485097 | 17.22° C | 51% | 1017.5 hPa | 0 mm | - | - | - |
| 1777484492 | 17.78° C | 50% | 1017.3 hPa | 0 mm | - | - | - |
| 1777483884 | 18.33° C | 49% | 1017.3 hPa | 0 mm | - | - | - |
| 1777482679 | 19.44° C | 51% | 1017.2 hPa | 0 mm | - | - | - |
| 1777482073 | 20° C | 50% | 1017 hPa | 0 mm | - | - | - |
| 1777481473 | 20° C | 50% | 1017.1 hPa | 0 mm | - | - | - |
| 1777480871 | 20° C | 50% | 1017 hPa | 0 mm | - | - | - |
| 1777479054 | 19.44° C | 53% | 1017.1 hPa | 0 mm | - | - | - |
| 1777477249 | 20.56° C | 53% | 1017 hPa | 0 mm | - | - | - |
| 1777476641 | 20° C | 55% | 1017.1 hPa | 0 mm | - | - | - |
| 1777476034 | 20° C | 54% | 1017.1 hPa | 0 mm | - | - | - |
| 1777474829 | 18.89° C | 58% | 1017.1 hPa | 0 mm | - | - | - |
| 1777473624 | 17.78° C | 63% | 1017.2 hPa | 0 mm | - | - | - |
* Rain latest hour (hover to see other rain measurements)
** Current wind speed in m/s (hover to see current wind gust speed)